sensor_id;sensor_type;location;lat;lon;timestamp;P1;durP1;ratioP1;P2;durP2;ratioP2
7432;SDS011;32233;49.500;7.764;2023-05-20T00:00:59;2.80;;;1.90;;
7432;SDS011;32233;49.500;7.764;2023-05-20T00:03:26;2.07;;;1.87;;
7432;SDS011;32233;49.500;7.764;2023-05-20T00:05:55;4.00;;;2.00;;
7432;SDS011;32233;49.500;7.764;2023-05-20T00:08:21;2.13;;;1.97;;
7432;SDS011;32233;49.500;7.764;2023-05-20T00:10:48;3.43;;;1.60;;
7432;SDS011;32233;49.500;7.764;2023-05-20T00:13:15;3.33;;;1.83;;
7432;SDS011;32233;49.500;7.764;2023-05-20T00:15:41;3.77;;;1.80;;
7432;SDS011;32233;49.500;7.764;2023-05-20T00:18:08;2.07;;;1.70;;
7432;SDS011;32233;49.500;7.764;2023-05-20T00:20:34;1.97;;;1.77;;
7432;SDS011;32233;49.500;7.764;2023-05-20T00:23:01;2.37;;;1.80;;
7432;SDS011;32233;49.500;7.764;2023-05-20T00:25:28;2.20;;;2.00;;
7432;SDS011;32233;49.500;7.764;2023-05-20T00:27:57;2.20;;;2.00;;
7432;SDS011;32233;49.500;7.764;2023-05-20T00:30:23;3.43;;;2.00;;
7432;SDS011;32233;49.500;7.764;2023-05-20T00:32:50;2.33;;;1.97;;
7432;SDS011;32233;49.500;7.764;2023-05-20T00:35:16;2.27;;;2.07;;
7432;SDS011;32233;49.500;7.764;2023-05-20T00:37:43;2.97;;;1.80;;
7432;SDS011;32233;49.500;7.764;2023-05-20T00:40:10;4.23;;;2.23;;
7432;SDS011;32233;49.500;7.764;2023-05-20T00:42:40;2.07;;;1.97;;
7432;SDS011;32233;49.500;7.764;2023-05-20T00:45:07;3.00;;;2.07;;
7432;SDS011;32233;49.500;7.764;2023-05-20T00:47:34;2.37;;;2.00;;
7432;SDS011;32233;49.500;7.764;2023-05-20T00:50:02;3.07;;;2.07;;
7432;SDS011;32233;49.500;7.764;2023-05-20T00:52:30;2.13;;;1.93;;
7432;SDS011;32233;49.500;7.764;2023-05-20T00:54:57;3.30;;;1.83;;
7432;SDS011;32233;49.500;7.764;2023-05-20T00:57:25;3.87;;;2.20;;
7432;SDS011;32233;49.500;7.764;2023-05-20T00:59:52;2.13;;;1.83;;
7432;SDS011;32233;49.500;7.764;2023-05-20T01:02:19;1.97;;;1.87;;
7432;SDS011;32233;49.500;7.764;2023-05-20T01:04:46;3.23;;;1.97;;
7432;SDS011;32233;49.500;7.764;2023-05-20T01:07:16;4.20;;;1.97;;
7432;SDS011;32233;49.500;7.764;2023-05-20T01:09:44;3.90;;;1.90;;
7432;SDS011;32233;49.500;7.764;2023-05-20T01:15:00;3.17;;;1.90;;
7432;SDS011;32233;49.500;7.764;2023-05-20T01:17:35;2.70;;;2.10;;
7432;SDS011;32233;49.500;7.764;2023-05-20T01:20:11;3.80;;;2.43;;
7432;SDS011;32233;49.500;7.764;2023-05-20T01:22:51;2.50;;;1.97;;
7432;SDS011;32233;49.500;7.764;2023-05-20T01:25:19;2.40;;;2.20;;
7432;SDS011;32233;49.500;7.764;2023-05-20T01:27:46;2.70;;;1.90;;
7432;SDS011;32233;49.500;7.764;2023-05-20T01:30:14;2.03;;;1.80;;
7432;SDS011;32233;49.500;7.764;2023-05-20T01:32:42;2.57;;;1.80;;
7432;SDS011;32233;49.500;7.764;2023-05-20T01:35:13;2.97;;;2.13;;
7432;SDS011;32233;49.500;7.764;2023-05-20T01:37:41;2.10;;;1.90;;
7432;SDS011;32233;49.500;7.764;2023-05-20T01:40:09;5.47;;;1.90;;
7432;SDS011;32233;49.500;7.764;2023-05-20T01:42:40;2.10;;;1.90;;
7432;SDS011;32233;49.500;7.764;2023-05-20T01:45:07;3.23;;;2.00;;
7432;SDS011;32233;49.500;7.764;2023-05-20T01:47:36;9.63;;;2.63;;
7432;SDS011;32233;49.500;7.764;2023-05-20T01:50:02;4.17;;;2.27;;
7432;SDS011;32233;49.500;7.764;2023-05-20T01:52:29;4.83;;;1.97;;
7432;SDS011;32233;49.500;7.764;2023-05-20T01:54:56;3.50;;;2.03;;
7432;SDS011;32233;49.500;7.764;2023-05-20T01:57:23;3.67;;;2.40;;
7432;SDS011;32233;49.500;7.764;2023-05-20T01:59:51;2.57;;;2.37;;
7432;SDS011;32233;49.500;7.764;2023-05-20T02:02:17;3.80;;;2.07;;
7432;SDS011;32233;49.500;7.764;2023-05-20T02:04:44;1.90;;;1.80;;
7432;SDS011;32233;49.500;7.764;2023-05-20T02:07:15;3.60;;;2.37;;
7432;SDS011;32233;49.500;7.764;2023-05-20T02:09:42;3.20;;;2.33;;
7432;SDS011;32233;49.500;7.764;2023-05-20T02:12:08;6.20;;;2.23;;
7432;SDS011;32233;49.500;7.764;2023-05-20T02:14:42;2.57;;;2.37;;
7432;SDS011;32233;49.500;7.764;2023-05-20T02:17:10;4.13;;;2.10;;
7432;SDS011;32233;49.500;7.764;2023-05-20T02:19:37;2.83;;;2.07;;
7432;SDS011;32233;49.500;7.764;2023-05-20T02:22:03;3.10;;;2.17;;
7432;SDS011;32233;49.500;7.764;2023-05-20T02:24:30;2.47;;;2.27;;
7432;SDS011;32233;49.500;7.764;2023-05-20T02:26:57;2.57;;;2.37;;
7432;SDS011;32233;49.500;7.764;2023-05-20T02:29:25;4.97;;;2.20;;
7432;SDS011;32233;49.500;7.764;2023-05-20T02:31:51;3.00;;;2.57;;
7432;SDS011;32233;49.500;7.764;2023-05-20T02:34:19;3.57;;;2.57;;
7432;SDS011;32233;49.500;7.764;2023-05-20T02:36:46;2.83;;;2.30;;
7432;SDS011;32233;49.500;7.764;2023-05-20T02:39:13;4.73;;;2.63;;
7432;SDS011;32233;49.500;7.764;2023-05-20T02:41:39;3.47;;;2.60;;
7432;SDS011;32233;49.500;7.764;2023-05-20T02:44:07;4.13;;;2.60;;
7432;SDS011;32233;49.500;7.764;2023-05-20T02:46:34;3.60;;;2.20;;
7432;SDS011;32233;49.500;7.764;2023-05-20T02:49:01;3.67;;;2.83;;
7432;SDS011;32233;49.500;7.764;2023-05-20T02:51:28;3.00;;;2.63;;
7432;SDS011;32233;49.500;7.764;2023-05-20T02:53:57;3.47;;;2.63;;
7432;SDS011;32233;49.500;7.764;2023-05-20T02:56:24;3.37;;;2.30;;
7432;SDS011;32233;49.500;7.764;2023-05-20T02:58:52;3.20;;;2.70;;
7432;SDS011;32233;49.500;7.764;2023-05-20T03:01:19;3.27;;;2.23;;
7432;SDS011;32233;49.500;7.764;2023-05-20T03:03:46;3.07;;;2.60;;
7432;SDS011;32233;49.500;7.764;2023-05-20T03:06:12;3.00;;;2.70;;
7432;SDS011;32233;49.500;7.764;2023-05-20T03:08:39;5.47;;;2.90;;
7432;SDS011;32233;49.500;7.764;2023-05-20T03:11:08;4.27;;;2.60;;
7432;SDS011;32233;49.500;7.764;2023-05-20T03:13:34;2.63;;;2.43;;
7432;SDS011;32233;49.500;7.764;2023-05-20T03:16:01;4.67;;;2.73;;
7432;SDS011;32233;49.500;7.764;2023-05-20T03:18:28;3.20;;;2.90;;
7432;SDS011;32233;49.500;7.764;2023-05-20T03:20:54;3.13;;;2.50;;
7432;SDS011;32233;49.500;7.764;2023-05-20T03:23:21;5.37;;;2.93;;
7432;SDS011;32233;49.500;7.764;2023-05-20T03:25:48;4.20;;;2.93;;
7432;SDS011;32233;49.500;7.764;2023-05-20T03:28:14;2.80;;;2.60;;
7432;SDS011;32233;49.500;7.764;2023-05-20T03:30:42;3.90;;;2.87;;
7432;SDS011;32233;49.500;7.764;2023-05-20T03:33:10;3.37;;;2.90;;
7432;SDS011;32233;49.500;7.764;2023-05-20T03:35:37;3.00;;;2.70;;
7432;SDS011;32233;49.500;7.764;2023-05-20T03:38:04;3.70;;;3.03;;
7432;SDS011;32233;49.500;7.764;2023-05-20T03:40:33;3.67;;;2.97;;
7432;SDS011;32233;49.500;7.764;2023-05-20T03:43:00;3.60;;;3.03;;
7432;SDS011;32233;49.500;7.764;2023-05-20T03:45:27;6.23;;;3.07;;
7432;SDS011;32233;49.500;7.764;2023-05-20T03:48:01;3.27;;;2.97;;
7432;SDS011;32233;49.500;7.764;2023-05-20T03:50:31;3.70;;;3.40;;
7432;SDS011;32233;49.500;7.764;2023-05-20T03:52:59;3.33;;;3.00;;
7432;SDS011;32233;49.500;7.764;2023-05-20T03:55:27;3.83;;;3.07;;
7432;SDS011;32233;49.500;7.764;2023-05-20T03:57:54;3.33;;;3.00;;
7432;SDS011;32233;49.500;7.764;2023-05-20T04:00:20;3.43;;;3.13;;
7432;SDS011;32233;49.500;7.764;2023-05-20T04:02:48;3.60;;;3.30;;
7432;SDS011;32233;49.500;7.764;2023-05-20T04:05:17;3.50;;;3.10;;
7432;SDS011;32233;49.500;7.764;2023-05-20T04:07:45;4.03;;;3.60;;
7432;SDS011;32233;49.500;7.764;2023-05-20T04:10:13;4.53;;;3.40;;
7432;SDS011;32233;49.500;7.764;2023-05-20T04:12:39;5.93;;;3.20;;
7432;SDS011;32233;49.500;7.764;2023-05-20T04:15:07;3.83;;;3.47;;
7432;SDS011;32233;49.500;7.764;2023-05-20T04:17:55;4.10;;;2.90;;
7432;SDS011;32233;49.500;7.764;2023-05-20T04:20:21;3.47;;;3.13;;
7432;SDS011;32233;49.500;7.764;2023-05-20T04:22:51;3.63;;;3.33;;
7432;SDS011;32233;49.500;7.764;2023-05-20T04:25:19;4.50;;;3.30;;
7432;SDS011;32233;49.500;7.764;2023-05-20T04:27:46;5.20;;;3.20;;
7432;SDS011;32233;49.500;7.764;2023-05-20T04:30:14;4.37;;;3.20;;
7432;SDS011;32233;49.500;7.764;2023-05-20T04:32:45;4.07;;;3.03;;
7432;SDS011;32233;49.500;7.764;2023-05-20T04:35:11;4.60;;;3.20;;
7432;SDS011;32233;49.500;7.764;2023-05-20T04:37:41;4.23;;;3.10;;
7432;SDS011;32233;49.500;7.764;2023-05-20T04:40:10;3.60;;;3.00;;
7432;SDS011;32233;49.500;7.764;2023-05-20T04:42:38;3.73;;;3.07;;
7432;SDS011;32233;49.500;7.764;2023-05-20T04:45:05;4.27;;;3.53;;
7432;SDS011;32233;49.500;7.764;2023-05-20T04:47:34;3.70;;;3.40;;
7432;SDS011;32233;49.500;7.764;2023-05-20T04:50:07;5.57;;;3.47;;
7432;SDS011;32233;49.500;7.764;2023-05-20T04:52:40;3.43;;;3.10;;
7432;SDS011;32233;49.500;7.764;2023-05-20T04:55:08;4.77;;;3.70;;
7432;SDS011;32233;49.500;7.764;2023-05-20T04:57:39;3.43;;;3.10;;
7432;SDS011;32233;49.500;7.764;2023-05-20T05:00:08;3.43;;;3.17;;
7432;SDS011;32233;49.500;7.764;2023-05-20T05:02:36;4.10;;;3.70;;
7432;SDS011;32233;49.500;7.764;2023-05-20T05:05:02;5.23;;;3.17;;
7432;SDS011;32233;49.500;7.764;2023-05-20T05:07:29;4.70;;;3.20;;
7432;SDS011;32233;49.500;7.764;2023-05-20T05:09:56;3.67;;;3.33;;
7432;SDS011;32233;49.500;7.764;2023-05-20T05:12:23;3.87;;;3.43;;
7432;SDS011;32233;49.500;7.764;2023-05-20T05:14:49;3.90;;;3.07;;
7432;SDS011;32233;49.500;7.764;2023-05-20T05:17:16;3.90;;;3.10;;
7432;SDS011;32233;49.500;7.764;2023-05-20T05:19:43;3.20;;;3.00;;
7432;SDS011;32233;49.500;7.764;2023-05-20T05:22:10;3.13;;;2.73;;
7432;SDS011;32233;49.500;7.764;2023-05-20T05:24:38;4.40;;;3.60;;
7432;SDS011;32233;49.500;7.764;2023-05-20T05:27:04;5.13;;;3.40;;
7432;SDS011;32233;49.500;7.764;2023-05-20T05:29:31;4.80;;;3.77;;
7432;SDS011;32233;49.500;7.764;2023-05-20T05:31:57;3.60;;;3.13;;
7432;SDS011;32233;49.500;7.764;2023-05-20T05:34:24;3.60;;;3.30;;
7432;SDS011;32233;49.500;7.764;2023-05-20T05:36:51;3.17;;;2.87;;
7432;SDS011;32233;49.500;7.764;2023-05-20T05:39:17;4.27;;;3.10;;
7432;SDS011;32233;49.500;7.764;2023-05-20T05:41:44;3.70;;;3.30;;
7432;SDS011;32233;49.500;7.764;2023-05-20T05:44:11;4.10;;;3.60;;
7432;SDS011;32233;49.500;7.764;2023-05-20T05:46:38;4.20;;;3.80;;
7432;SDS011;32233;49.500;7.764;2023-05-20T05:49:05;3.63;;;3.00;;
7432;SDS011;32233;49.500;7.764;2023-05-20T05:51:32;3.20;;;3.00;;
7432;SDS011;32233;49.500;7.764;2023-05-20T05:53:59;4.33;;;3.23;;
7432;SDS011;32233;49.500;7.764;2023-05-20T05:56:25;4.50;;;2.80;;
7432;SDS011;32233;49.500;7.764;2023-05-20T05:58:52;4.83;;;3.60;;
7432;SDS011;32233;49.500;7.764;2023-05-20T06:01:18;3.67;;;3.20;;
7432;SDS011;32233;49.500;7.764;2023-05-20T06:03:45;3.90;;;3.50;;
7432;SDS011;32233;49.500;7.764;2023-05-20T06:06:12;3.60;;;3.03;;
7432;SDS011;32233;49.500;7.764;2023-05-20T06:08:39;4.20;;;3.60;;
7432;SDS011;32233;49.500;7.764;2023-05-20T06:11:07;4.33;;;4.03;;
7432;SDS011;32233;49.500;7.764;2023-05-20T06:13:34;5.97;;;4.10;;
7432;SDS011;32233;49.500;7.764;2023-05-20T06:16:01;4.57;;;4.17;;
7432;SDS011;32233;49.500;7.764;2023-05-20T06:18:28;6.50;;;4.30;;
7432;SDS011;32233;49.500;7.764;2023-05-20T06:20:59;5.73;;;4.47;;
7432;SDS011;32233;49.500;7.764;2023-05-20T06:23:26;5.03;;;4.63;;
7432;SDS011;32233;49.500;7.764;2023-05-20T06:26:02;5.17;;;4.67;;
7432;SDS011;32233;49.500;7.764;2023-05-20T06:28:30;5.00;;;4.50;;
7432;SDS011;32233;49.500;7.764;2023-05-20T06:30:57;4.97;;;4.40;;
7432;SDS011;32233;49.500;7.764;2023-05-20T06:33:25;4.90;;;4.50;;
7432;SDS011;32233;49.500;7.764;2023-05-20T06:35:57;5.30;;;4.20;;
7432;SDS011;32233;49.500;7.764;2023-05-20T06:38:27;8.13;;;5.03;;
7432;SDS011;32233;49.500;7.764;2023-05-20T06:40:54;5.63;;;5.10;;
7432;SDS011;32233;49.500;7.764;2023-05-20T06:43:20;5.23;;;4.73;;
7432;SDS011;32233;49.500;7.764;2023-05-20T06:45:52;4.73;;;4.23;;
7432;SDS011;32233;49.500;7.764;2023-05-20T06:48:29;4.67;;;4.27;;
7432;SDS011;32233;49.500;7.764;2023-05-20T06:50:56;8.47;;;5.07;;
7432;SDS011;32233;49.500;7.764;2023-05-20T06:53:22;5.53;;;4.80;;
7432;SDS011;32233;49.500;7.764;2023-05-20T06:55:49;5.23;;;4.70;;
7432;SDS011;32233;49.500;7.764;2023-05-20T06:58:16;6.13;;;4.60;;
7432;SDS011;32233;49.500;7.764;2023-05-20T07:00:42;4.90;;;4.50;;
7432;SDS011;32233;49.500;7.764;2023-05-20T07:03:10;4.97;;;4.53;;
7432;SDS011;32233;49.500;7.764;2023-05-20T07:05:37;7.30;;;5.23;;
7432;SDS011;32233;49.500;7.764;2023-05-20T07:08:04;5.43;;;4.93;;
7432;SDS011;32233;49.500;7.764;2023-05-20T07:10:31;5.97;;;5.37;;
7432;SDS011;32233;49.500;7.764;2023-05-20T07:12:58;6.40;;;5.50;;
7432;SDS011;32233;49.500;7.764;2023-05-20T07:15:24;5.93;;;5.30;;
7432;SDS011;32233;49.500;7.764;2023-05-20T07:17:52;5.70;;;5.20;;
7432;SDS011;32233;49.500;7.764;2023-05-20T07:20:19;6.13;;;5.53;;
7432;SDS011;32233;49.500;7.764;2023-05-20T07:22:46;6.73;;;5.40;;
7432;SDS011;32233;49.500;7.764;2023-05-20T07:25:19;5.77;;;4.83;;
7432;SDS011;32233;49.500;7.764;2023-05-20T07:27:47;4.77;;;4.30;;
7432;SDS011;32233;49.500;7.764;2023-05-20T07:30:14;6.37;;;5.23;;
7432;SDS011;32233;49.500;7.764;2023-05-20T07:32:48;5.60;;;5.10;;
7432;SDS011;32233;49.500;7.764;2023-05-20T07:35:14;5.87;;;5.33;;
7432;SDS011;32233;49.500;7.764;2023-05-20T07:37:42;6.50;;;5.90;;
7432;SDS011;32233;49.500;7.764;2023-05-20T07:40:08;6.20;;;5.17;;
7432;SDS011;32233;49.500;7.764;2023-05-20T07:42:36;6.77;;;5.90;;
7432;SDS011;32233;49.500;7.764;2023-05-20T07:45:03;6.17;;;5.67;;
7432;SDS011;32233;49.500;7.764;2023-05-20T07:47:31;7.07;;;5.47;;
7432;SDS011;32233;49.500;7.764;2023-05-20T07:49:58;5.83;;;5.27;;
7432;SDS011;32233;49.500;7.764;2023-05-20T07:52:25;6.53;;;5.90;;
7432;SDS011;32233;49.500;7.764;2023-05-20T07:54:52;6.63;;;6.03;;
7432;SDS011;32233;49.500;7.764;2023-05-20T07:57:19;5.83;;;5.33;;
7432;SDS011;32233;49.500;7.764;2023-05-20T07:59:45;6.60;;;5.70;;
7432;SDS011;32233;49.500;7.764;2023-05-20T08:02:13;5.30;;;4.90;;
7432;SDS011;32233;49.500;7.764;2023-05-20T08:04:41;6.03;;;5.53;;
7432;SDS011;32233;49.500;7.764;2023-05-20T08:07:08;6.20;;;5.60;;
7432;SDS011;32233;49.500;7.764;2023-05-20T08:09:49;6.43;;;5.80;;
7432;SDS011;32233;49.500;7.764;2023-05-20T08:12:17;9.33;;;6.30;;
7432;SDS011;32233;49.500;7.764;2023-05-20T08:14:43;7.17;;;5.77;;
7432;SDS011;32233;49.500;7.764;2023-05-20T08:17:10;6.17;;;5.53;;
7432;SDS011;32233;49.500;7.764;2023-05-20T08:23:51;7.27;;;6.10;;
7432;SDS011;32233;49.500;7.764;2023-05-20T08:27:16;6.50;;;5.83;;
7432;SDS011;32233;49.500;7.764;2023-05-20T08:30:09;5.47;;;4.97;;
7432;SDS011;32233;49.500;7.764;2023-05-20T08:33:34;6.70;;;6.10;;
7432;SDS011;32233;49.500;7.764;2023-05-20T08:36:40;9.47;;;6.20;;
7432;SDS011;32233;49.500;7.764;2023-05-20T08:40:11;6.37;;;5.87;;
7432;SDS011;32233;49.500;7.764;2023-05-20T08:43:17;6.00;;;5.50;;
7432;SDS011;32233;49.500;7.764;2023-05-20T08:46:56;6.73;;;6.13;;
7432;SDS011;32233;49.500;7.764;2023-05-20T08:49:25;6.07;;;5.57;;
7432;SDS011;32233;49.500;7.764;2023-05-20T08:52:10;6.63;;;6.03;;
7432;SDS011;32233;49.500;7.764;2023-05-20T08:54:57;8.23;;;6.90;;
7432;SDS011;32233;49.500;7.764;2023-05-20T08:57:24;6.93;;;6.33;;
7432;SDS011;32233;49.500;7.764;2023-05-20T08:59:53;6.87;;;6.27;;
7432;SDS011;32233;49.500;7.764;2023-05-20T09:02:19;6.57;;;5.97;;
7432;SDS011;32233;49.500;7.764;2023-05-20T09:04:46;7.00;;;5.93;;
7432;SDS011;32233;49.500;7.764;2023-05-20T09:07:12;7.13;;;6.50;;
7432;SDS011;32233;49.500;7.764;2023-05-20T09:09:39;6.67;;;5.97;;
7432;SDS011;32233;49.500;7.764;2023-05-20T09:12:06;7.00;;;5.90;;
7432;SDS011;32233;49.500;7.764;2023-05-20T09:14:34;7.13;;;5.90;;
7432;SDS011;32233;49.500;7.764;2023-05-20T09:17:00;8.90;;;6.80;;
7432;SDS011;32233;49.500;7.764;2023-05-20T09:19:27;7.83;;;7.13;;
7432;SDS011;32233;49.500;7.764;2023-05-20T09:21:53;7.57;;;6.87;;
7432;SDS011;32233;49.500;7.764;2023-05-20T09:24:23;7.77;;;6.77;;
7432;SDS011;32233;49.500;7.764;2023-05-20T09:26:51;7.03;;;6.07;;
7432;SDS011;32233;49.500;7.764;2023-05-20T09:29:18;10.90;;;6.90;;
7432;SDS011;32233;49.500;7.764;2023-05-20T09:31:47;7.33;;;6.63;;
7432;SDS011;32233;49.500;7.764;2023-05-20T09:34:15;7.23;;;6.53;;
7432;SDS011;32233;49.500;7.764;2023-05-20T09:36:43;6.87;;;6.20;;
7432;SDS011;32233;49.500;7.764;2023-05-20T09:39:15;7.23;;;6.53;;
7432;SDS011;32233;49.500;7.764;2023-05-20T09:41:46;6.40;;;5.80;;
7432;SDS011;32233;49.500;7.764;2023-05-20T09:44:17;6.73;;;6.13;;
7432;SDS011;32233;49.500;7.764;2023-05-20T09:46:45;7.33;;;5.63;;
7432;SDS011;32233;49.500;7.764;2023-05-20T09:49:13;5.77;;;5.27;;
7432;SDS011;32233;49.500;7.764;2023-05-20T09:51:40;7.30;;;6.63;;
7432;SDS011;32233;49.500;7.764;2023-05-20T09:54:09;6.87;;;6.17;;
7432;SDS011;32233;49.500;7.764;2023-05-20T09:56:39;6.20;;;5.70;;
7432;SDS011;32233;49.500;7.764;2023-05-20T09:59:06;6.60;;;5.43;;
7432;SDS011;32233;49.500;7.764;2023-05-20T10:01:34;7.23;;;6.27;;
7432;SDS011;32233;49.500;7.764;2023-05-20T10:04:01;7.57;;;6.90;;
7432;SDS011;32233;49.500;7.764;2023-05-20T10:15:24;6.97;;;6.37;;
7432;SDS011;32233;49.500;7.764;2023-05-20T10:20:56;6.67;;;6.13;;
7432;SDS011;32233;49.500;7.764;2023-05-20T10:23:23;7.00;;;5.70;;
7432;SDS011;32233;49.500;7.764;2023-05-20T10:25:53;5.97;;;5.40;;
7432;SDS011;32233;49.500;7.764;2023-05-20T10:28:28;6.23;;;4.73;;
7432;SDS011;32233;49.500;7.764;2023-05-20T10:30:56;6.27;;;5.77;;
7432;SDS011;32233;49.500;7.764;2023-05-20T10:33:27;7.30;;;6.53;;
7432;SDS011;32233;49.500;7.764;2023-05-20T10:35:58;7.00;;;6.40;;
7432;SDS011;32233;49.500;7.764;2023-05-20T10:38:25;6.67;;;5.97;;
7432;SDS011;32233;49.500;7.764;2023-05-20T10:40:52;6.63;;;5.93;;
7432;SDS011;32233;49.500;7.764;2023-05-20T10:43:25;6.20;;;5.70;;
7432;SDS011;32233;49.500;7.764;2023-05-20T10:45:56;8.50;;;6.73;;
7432;SDS011;32233;49.500;7.764;2023-05-20T10:48:24;6.23;;;5.63;;
7432;SDS011;32233;49.500;7.764;2023-05-20T10:50:58;7.00;;;6.30;;
7432;SDS011;32233;49.500;7.764;2023-05-20T10:53:36;6.07;;;5.47;;
7432;SDS011;32233;49.500;7.764;2023-05-20T10:56:17;6.90;;;6.20;;
7432;SDS011;32233;49.500;7.764;2023-05-20T10:58:44;7.17;;;6.47;;
7432;SDS011;32233;49.500;7.764;2023-05-20T11:01:11;6.57;;;5.93;;
7432;SDS011;32233;49.500;7.764;2023-05-20T11:03:39;6.60;;;5.97;;
7432;SDS011;32233;49.500;7.764;2023-05-20T11:06:13;6.50;;;6.00;;
7432;SDS011;32233;49.500;7.764;2023-05-20T11:08:43;6.50;;;5.90;;
7432;SDS011;32233;49.500;7.764;2023-05-20T11:11:11;6.53;;;5.47;;
7432;SDS011;32233;49.500;7.764;2023-05-20T11:13:38;6.50;;;5.90;;
7432;SDS011;32233;49.500;7.764;2023-05-20T11:16:05;6.23;;;5.63;;
7432;SDS011;32233;49.500;7.764;2023-05-20T11:18:32;7.20;;;6.50;;
7432;SDS011;32233;49.500;7.764;2023-05-20T11:20:58;9.40;;;6.70;;
7432;SDS011;32233;49.500;7.764;2023-05-20T11:23:26;7.87;;;6.87;;
7432;SDS011;32233;49.500;7.764;2023-05-20T11:25:54;7.47;;;6.30;;
7432;SDS011;32233;49.500;7.764;2023-05-20T11:28:22;7.80;;;7.10;;
7432;SDS011;32233;49.500;7.764;2023-05-20T11:30:50;6.43;;;5.83;;
7432;SDS011;32233;49.500;7.764;2023-05-20T11:33:17;6.67;;;6.07;;
7432;SDS011;32233;49.500;7.764;2023-05-20T11:38:16;7.67;;;6.63;;
7432;SDS011;32233;49.500;7.764;2023-05-20T11:40:45;6.90;;;6.10;;
7432;SDS011;32233;49.500;7.764;2023-05-20T11:43:16;6.77;;;6.17;;
7432;SDS011;32233;49.500;7.764;2023-05-20T11:45:44;7.60;;;6.80;;
7432;SDS011;32233;49.500;7.764;2023-05-20T11:48:18;7.77;;;6.67;;
7432;SDS011;32233;49.500;7.764;2023-05-20T11:50:45;7.70;;;6.90;;
7432;SDS011;32233;49.500;7.764;2023-05-20T11:53:13;7.80;;;7.10;;
7432;SDS011;32233;49.500;7.764;2023-05-20T11:58:19;8.13;;;7.40;;
7432;SDS011;32233;49.500;7.764;2023-05-20T12:00:46;7.67;;;6.87;;
7432;SDS011;32233;49.500;7.764;2023-05-20T12:03:22;7.43;;;6.83;;
7432;SDS011;32233;49.500;7.764;2023-05-20T12:05:49;7.10;;;6.40;;
7432;SDS011;32233;49.500;7.764;2023-05-20T12:08:16;8.03;;;7.33;;
7432;SDS011;32233;49.500;7.764;2023-05-20T12:10:43;7.67;;;6.97;;
7432;SDS011;32233;49.500;7.764;2023-05-20T12:13:12;7.77;;;6.43;;
7432;SDS011;32233;49.500;7.764;2023-05-20T12:15:39;8.80;;;8.00;;
7432;SDS011;32233;49.500;7.764;2023-05-20T12:18:06;9.17;;;7.23;;
7432;SDS011;32233;49.500;7.764;2023-05-20T12:20:33;7.67;;;6.97;;
7432;SDS011;32233;49.500;7.764;2023-05-20T12:23:00;7.10;;;6.40;;
7432;SDS011;32233;49.500;7.764;2023-05-20T12:25:27;6.93;;;6.33;;
7432;SDS011;32233;49.500;7.764;2023-05-20T12:27:54;7.30;;;6.50;;
7432;SDS011;32233;49.500;7.764;2023-05-20T12:30:21;7.10;;;6.57;;
7432;SDS011;32233;49.500;7.764;2023-05-20T12:32:49;8.83;;;7.87;;
7432;SDS011;32233;49.500;7.764;2023-05-20T12:35:23;7.50;;;6.90;;
7432;SDS011;32233;49.500;7.764;2023-05-20T12:37:52;7.77;;;6.90;;
7432;SDS011;32233;49.500;7.764;2023-05-20T12:40:18;7.83;;;7.10;;
7432;SDS011;32233;49.500;7.764;2023-05-20T12:42:45;9.90;;;7.57;;
7432;SDS011;32233;49.500;7.764;2023-05-20T12:45:12;8.07;;;7.33;;
7432;SDS011;32233;49.500;7.764;2023-05-20T12:47:38;7.80;;;7.10;;
7432;SDS011;32233;49.500;7.764;2023-05-20T12:50:05;8.20;;;7.50;;
7432;SDS011;32233;49.500;7.764;2023-05-20T12:52:32;7.90;;;7.30;;
7432;SDS011;32233;49.500;7.764;2023-05-20T12:54:58;9.03;;;7.23;;
7432;SDS011;32233;49.500;7.764;2023-05-20T12:57:25;8.80;;;8.00;;
7432;SDS011;32233;49.500;7.764;2023-05-20T12:59:52;7.80;;;7.20;;
7432;SDS011;32233;49.500;7.764;2023-05-20T13:02:18;7.77;;;7.03;;
7432;SDS011;32233;49.500;7.764;2023-05-20T13:04:46;8.47;;;7.70;;
7432;SDS011;32233;49.500;7.764;2023-05-20T13:07:12;8.70;;;7.63;;
7432;SDS011;32233;49.500;7.764;2023-05-20T13:09:39;8.33;;;7.43;;
7432;SDS011;32233;49.500;7.764;2023-05-20T13:12:06;8.27;;;7.57;;
7432;SDS011;32233;49.500;7.764;2023-05-20T13:14:32;8.50;;;7.80;;
7432;SDS011;32233;49.500;7.764;2023-05-20T13:16:59;7.93;;;7.13;;
7432;SDS011;32233;49.500;7.764;2023-05-20T13:19:26;9.40;;;7.40;;
7432;SDS011;32233;49.500;7.764;2023-05-20T13:21:52;8.13;;;7.43;;
7432;SDS011;32233;49.500;7.764;2023-05-20T13:24:19;8.57;;;7.30;;
7432;SDS011;32233;49.500;7.764;2023-05-20T13:26:46;8.93;;;7.90;;
7432;SDS011;32233;49.500;7.764;2023-05-20T13:29:13;9.53;;;8.50;;
7432;SDS011;32233;49.500;7.764;2023-05-20T13:31:40;8.53;;;7.13;;
7432;SDS011;32233;49.500;7.764;2023-05-20T13:34:06;7.60;;;6.90;;
7432;SDS011;32233;49.500;7.764;2023-05-20T13:36:33;7.70;;;7.00;;
7432;SDS011;32233;49.500;7.764;2023-05-20T13:39:00;7.57;;;6.97;;
7432;SDS011;32233;49.500;7.764;2023-05-20T13:41:26;8.43;;;7.73;;
7432;SDS011;32233;49.500;7.764;2023-05-20T13:43:53;8.90;;;8.00;;
7432;SDS011;32233;49.500;7.764;2023-05-20T13:46:19;9.27;;;7.83;;
7432;SDS011;32233;49.500;7.764;2023-05-20T13:48:46;8.30;;;7.60;;
7432;SDS011;32233;49.500;7.764;2023-05-20T13:51:13;8.97;;;8.07;;
7432;SDS011;32233;49.500;7.764;2023-05-20T13:53:39;8.63;;;7.73;;
7432;SDS011;32233;49.500;7.764;2023-05-20T13:56:06;8.93;;;8.13;;
7432;SDS011;32233;49.500;7.764;2023-05-20T13:58:35;9.73;;;7.87;;
7432;SDS011;32233;49.500;7.764;2023-05-20T14:01:03;9.97;;;8.47;;
7432;SDS011;32233;49.500;7.764;2023-05-20T14:03:30;8.83;;;8.03;;
7432;SDS011;32233;49.500;7.764;2023-05-20T14:05:58;9.57;;;8.43;;
7432;SDS011;32233;49.500;7.764;2023-05-20T14:08:26;11.93;;;8.57;;
7432;SDS011;32233;49.500;7.764;2023-05-20T14:10:52;9.23;;;8.30;;
7432;SDS011;32233;49.500;7.764;2023-05-20T14:13:23;9.23;;;8.40;;
7432;SDS011;32233;49.500;7.764;2023-05-20T14:15:50;10.23;;;9.30;;
7432;SDS011;32233;49.500;7.764;2023-05-20T14:18:19;9.20;;;8.30;;
7432;SDS011;32233;49.500;7.764;2023-05-20T14:20:46;11.10;;;8.30;;
7432;SDS011;32233;49.500;7.764;2023-05-20T14:23:13;10.80;;;8.63;;
7432;SDS011;32233;49.500;7.764;2023-05-20T14:25:39;9.17;;;8.37;;
7432;SDS011;32233;49.500;7.764;2023-05-20T14:28:06;10.07;;;9.17;;
7432;SDS011;32233;49.500;7.764;2023-05-20T14:30:32;8.03;;;7.33;;
7432;SDS011;32233;49.500;7.764;2023-05-20T14:32:59;9.27;;;8.47;;
7432;SDS011;32233;49.500;7.764;2023-05-20T14:35:26;9.37;;;8.43;;
7432;SDS011;32233;49.500;7.764;2023-05-20T14:37:53;9.93;;;8.80;;
7432;SDS011;32233;49.500;7.764;2023-05-20T14:40:19;9.10;;;8.27;;
7432;SDS011;32233;49.500;7.764;2023-05-20T14:42:46;8.53;;;7.77;;
7432;SDS011;32233;49.500;7.764;2023-05-20T14:45:12;8.03;;;7.23;;
7432;SDS011;32233;49.500;7.764;2023-05-20T14:47:39;8.90;;;8.10;;
7432;SDS011;32233;49.500;7.764;2023-05-20T14:50:06;9.70;;;8.70;;
7432;SDS011;32233;49.500;7.764;2023-05-20T14:52:32;9.27;;;8.30;;
7432;SDS011;32233;49.500;7.764;2023-05-20T14:54:59;10.20;;;8.60;;
7432;SDS011;32233;49.500;7.764;2023-05-20T14:57:26;9.20;;;8.30;;
7432;SDS011;32233;49.500;7.764;2023-05-20T14:59:52;9.40;;;8.23;;
7432;SDS011;32233;49.500;7.764;2023-05-20T15:02:19;8.77;;;7.93;;
7432;SDS011;32233;49.500;7.764;2023-05-20T15:04:46;8.80;;;7.90;;
7432;SDS011;32233;49.500;7.764;2023-05-20T15:07:14;11.23;;;8.73;;
7432;SDS011;32233;49.500;7.764;2023-05-20T15:09:40;10.10;;;8.77;;
7432;SDS011;32233;49.500;7.764;2023-05-20T15:12:09;9.60;;;7.87;;
7432;SDS011;32233;49.500;7.764;2023-05-20T15:14:38;10.83;;;8.80;;
7432;SDS011;32233;49.500;7.764;2023-05-20T15:17:05;10.00;;;9.07;;
7432;SDS011;32233;49.500;7.764;2023-05-20T15:19:32;10.63;;;9.53;;
7432;SDS011;32233;49.500;7.764;2023-05-20T15:21:59;9.20;;;8.30;;
7432;SDS011;32233;49.500;7.764;2023-05-20T15:24:26;9.10;;;7.93;;
7432;SDS011;32233;49.500;7.764;2023-05-20T15:26:52;9.10;;;8.30;;
7432;SDS011;32233;49.500;7.764;2023-05-20T15:29:20;9.60;;;8.53;;
7432;SDS011;32233;49.500;7.764;2023-05-20T15:31:47;8.50;;;7.70;;
7432;SDS011;32233;49.500;7.764;2023-05-20T15:34:14;8.83;;;8.13;;